createdAt,value
2019-01-17T00:00:37.061Z,91.57
2019-01-17T00:03:23.960Z,91.39
2019-01-17T00:06:14.975Z,91.14
2019-01-17T00:09:21.525Z,90.79
2019-01-17T00:12:02.006Z,90.61
2019-01-17T00:14:49.060Z,90.36
2019-01-17T00:17:36.071Z,90.57
2019-01-17T00:20:21.775Z,90.01
2019-01-17T00:23:12.953Z,90.22
2019-01-17T00:25:59.945Z,90.52
2019-01-17T00:28:47.431Z,90.22
2019-01-17T00:31:38.513Z,90.05
2019-01-17T00:34:26.516Z,90.10
2019-01-17T00:37:20.984Z,90.36
2019-01-17T00:40:08.933Z,90.99
2019-01-17T00:43:12.220Z,90.52
2019-01-17T00:46:06.711Z,90.52
2019-01-17T00:48:55.055Z,90.29
2019-01-17T00:51:41.703Z,90.71
2019-01-17T00:54:32.653Z,90.92
2019-01-17T00:57:17.749Z,90.72
2019-01-17T01:00:04.879Z,90.79
2019-01-17T01:02:42.259Z,91.08
2019-01-17T01:05:39.615Z,90.71
2019-01-17T01:08:39.867Z,90.53
2019-01-17T01:11:18.747Z,90.80
2019-01-17T01:14:06.986Z,91.22
2019-01-17T01:17:00.153Z,91.64
2019-01-17T01:20:00.473Z,91.08
2019-01-17T01:22:47.846Z,91.14
2019-01-17T01:25:45.622Z,90.65
2019-01-17T01:28:23.631Z,90.89
2019-01-17T01:31:17.279Z,90.78
2019-01-17T01:34:04.095Z,91.15
2019-01-17T01:36:51.395Z,90.88
2019-01-17T01:39:51.459Z,90.58
2019-01-17T01:42:39.541Z,90.68
2019-01-17T01:45:44.123Z,90.94
2019-01-17T01:48:24.697Z,90.58
2019-01-17T01:51:12.678Z,91.19
2019-01-17T01:53:42.147Z,91.36
2019-01-17T01:56:11.194Z,91.83
2019-01-17T01:58:40.517Z,91.33
2019-01-17T02:01:09.513Z,91.67
2019-01-17T02:03:38.609Z,91.45
2019-01-17T02:06:07.629Z,92.06
2019-01-17T02:08:36.647Z,91.87
2019-01-17T02:11:06.528Z,91.90
2019-01-17T02:13:35.607Z,91.08
2019-01-17T02:16:04.731Z,90.22
2019-01-17T02:18:33.751Z,90.33
2019-01-17T02:21:02.783Z,90.11
2019-01-17T02:23:32.174Z,90.56
2019-01-17T02:26:01.263Z,90.97
2019-01-17T02:28:30.255Z,90.54
2019-01-17T02:30:59.755Z,91.12
2019-01-17T02:33:28.743Z,91.08
2019-01-17T02:35:58.184Z,90.97
2019-01-17T02:38:27.282Z,91.42
2019-01-17T02:40:56.711Z,91.35
2019-01-17T02:43:26.083Z,91.63
2019-01-17T02:45:56.194Z,92.04
2019-01-17T02:48:25.219Z,91.83
2019-01-17T02:50:54.652Z,91.83
2019-01-17T02:53:24.048Z,91.75
2019-01-17T02:55:53.465Z,91.25
2019-01-17T02:58:22.513Z,90.47
2019-01-17T03:00:51.969Z,90.24
2019-01-17T03:03:20.997Z,90.79
2019-01-17T03:05:50.350Z,90.88
2019-01-17T03:08:19.713Z,91.45
2019-01-17T03:10:48.711Z,92.36
2019-01-17T03:13:17.769Z,92.55
2019-01-17T03:15:46.831Z,92.56
2019-01-17T03:18:15.858Z,92.50
2019-01-17T03:20:45.257Z,92.03
2019-01-17T03:23:14.555Z,92.03
2019-01-17T03:25:43.948Z,91.66
2019-01-17T03:28:13.655Z,91.31
2019-01-17T03:30:42.780Z,91.81
2019-01-17T03:33:11.798Z,92.57
2019-01-17T03:35:40.827Z,92.65
2019-01-17T03:38:09.947Z,92.72
2019-01-17T03:40:38.985Z,93.28
2019-01-17T03:43:08.019Z,92.88
2019-01-17T03:45:37.387Z,92.33
2019-01-17T03:48:06.396Z,92.22
2019-01-17T03:50:35.444Z,92.15
2019-01-17T03:53:04.530Z,92.06
2019-01-17T03:55:33.550Z,92.53
2019-01-17T03:58:02.569Z,92.42
2019-01-17T04:00:31.845Z,92.57
2019-01-17T04:03:00.847Z,91.78
2019-01-17T04:05:29.987Z,92.22
2019-01-17T04:07:59.347Z,92.10
2019-01-17T04:10:28.732Z,92.52
2019-01-17T04:12:58.192Z,91.89
2019-01-17T04:15:27.231Z,92.18
2019-01-17T04:17:56.806Z,91.29
2019-01-17T04:20:25.857Z,91.79
2019-01-17T04:22:54.878Z,91.80
2019-01-17T04:25:24.896Z,91.46
2019-01-17T04:27:53.978Z,91.92
2019-01-17T04:30:23.393Z,91.85
2019-01-17T04:32:53.645Z,92.24
2019-01-17T04:35:22.670Z,91.62
2019-01-17T04:37:51.724Z,91.66
2019-01-17T04:40:20.745Z,92.29
2019-01-17T04:42:49.918Z,92.03
2019-01-17T04:45:18.917Z,91.93
2019-01-17T04:47:48.634Z,91.63
2019-01-17T04:50:17.642Z,91.54
2019-01-17T04:52:46.666Z,91.04
2019-01-17T04:55:15.705Z,90.70
2019-01-17T04:57:44.869Z,90.43
2019-01-17T05:00:16.771Z,89.93
2019-01-17T05:02:45.934Z,88.91
2019-01-17T05:05:15.488Z,88.73
2019-01-17T05:07:44.692Z,88.25
2019-01-17T05:10:15.566Z,87.98
2019-01-17T05:12:44.976Z,87.11
2019-01-17T05:15:14.311Z,87.58
2019-01-17T05:17:43.456Z,87.28
2019-01-17T05:20:15.429Z,87.77
2019-01-17T05:22:44.500Z,87.20
2019-01-17T05:25:13.982Z,88.00
2019-01-17T05:27:43.465Z,87.63
2019-01-17T05:30:15.402Z,88.06
2019-01-17T05:32:44.493Z,87.86
2019-01-17T05:35:13.513Z,87.98
2019-01-17T05:37:42.899Z,88.72
2019-01-17T05:40:15.623Z,89.40
2019-01-17T05:42:45.480Z,89.47
2019-01-17T05:45:14.629Z,89.21
2019-01-17T05:47:44.186Z,88.74
2019-01-17T05:50:14.420Z,88.07
2019-01-17T05:52:43.485Z,87.80
2019-01-17T05:55:19.735Z,88.50
2019-01-17T05:57:46.096Z,88.90
2019-01-17T06:00:17.631Z,88.91
2019-01-17T06:02:46.953Z,89.32
2019-01-17T06:05:17.377Z,89.49
2019-01-17T06:07:46.396Z,88.59
2019-01-17T06:10:15.616Z,89.14
2019-01-17T06:12:44.664Z,89.57
2019-01-17T06:15:15.494Z,89.85
2019-01-17T06:17:44.514Z,90.56
2019-01-17T06:20:14.814Z,89.95
2019-01-17T06:22:43.870Z,90.56
2019-01-17T06:25:13.212Z,90.40
2019-01-17T06:27:42.318Z,89.80
2019-01-17T06:30:12.717Z,89.83
2019-01-17T06:32:42.116Z,89.14
2019-01-17T06:35:11.946Z,90.32
2019-01-17T06:37:41.015Z,89.65
2019-01-17T06:40:17.559Z,89.86
2019-01-17T06:42:47.064Z,90.18
2019-01-17T06:45:16.084Z,90.81
2019-01-17T06:47:45.139Z,90.57
2019-01-17T06:50:14.754Z,90.30
2019-01-17T06:52:44.110Z,90.86
2019-01-17T06:55:13.196Z,90.44
2019-01-17T06:57:42.293Z,90.59
2019-01-17T07:00:13.277Z,90.59
2019-01-17T07:02:42.362Z,90.48
2019-01-17T07:05:12.137Z,90.52
2019-01-17T07:07:41.482Z,90.85
2019-01-17T07:10:12.779Z,90.31
2019-01-17T07:12:41.898Z,89.75
2019-01-17T07:15:11.255Z,89.34
2019-01-17T07:17:40.350Z,89.83
2019-01-17T07:20:12.468Z,89.27
2019-01-17T07:22:42.950Z,89.08
2019-01-17T07:25:12.894Z,90.16
2019-01-17T07:27:41.932Z,89.48
2019-01-17T07:30:17.530Z,89.25
2019-01-17T07:32:47.422Z,89.55
2019-01-17T07:35:17.469Z,89.38
2019-01-17T07:37:46.932Z,89.13
2019-01-17T07:40:17.351Z,88.67
2019-01-17T07:42:46.790Z,88.59
2019-01-17T07:45:18.515Z,88.43
2019-01-17T07:47:47.558Z,88.41
2019-01-17T07:50:16.946Z,88.71
2019-01-17T07:52:46.092Z,88.91
2019-01-17T07:55:16.215Z,89.17
2019-01-17T07:57:45.286Z,88.30
2019-01-17T08:00:17.084Z,88.57
2019-01-17T08:02:46.090Z,88.36
2019-01-17T08:05:16.504Z,89.02
2019-01-17T08:07:45.531Z,89.21
2019-01-17T08:10:16.046Z,88.36
2019-01-17T08:12:45.162Z,88.79
2019-01-17T08:15:14.530Z,89.07
2019-01-17T08:17:43.730Z,88.95
2019-01-17T08:20:15.988Z,89.82
2019-01-17T08:22:45.444Z,89.86
2019-01-17T08:25:14.852Z,90.08
2019-01-17T08:27:44.672Z,90.32
2019-01-17T08:30:18.958Z,89.94
2019-01-17T08:32:47.956Z,89.65
2019-01-17T08:35:17.796Z,89.85
2019-01-17T08:37:46.836Z,90.07
2019-01-17T08:40:22.276Z,90.45
2019-01-17T08:42:51.429Z,90.30
2019-01-17T08:45:20.484Z,89.96
2019-01-17T08:47:49.906Z,89.86
2019-01-17T08:50:19.150Z,89.73
2019-01-17T08:52:49.039Z,90.29
2019-01-17T08:55:18.264Z,90.75
2019-01-17T08:57:47.314Z,91.05
2019-01-17T09:00:18.494Z,90.94
2019-01-17T09:02:47.484Z,91.33
2019-01-17T09:05:16.492Z,90.93
2019-01-17T09:07:47.214Z,91.12
2019-01-17T09:10:25.070Z,91.39
2019-01-17T09:12:54.230Z,91.17
2019-01-17T09:15:25.856Z,90.83
2019-01-17T09:17:55.668Z,91.11
2019-01-17T09:20:25.028Z,90.31
2019-01-17T09:22:54.041Z,90.38
2019-01-17T09:25:24.016Z,90.82
2019-01-17T09:27:53.090Z,90.96
2019-01-17T09:30:22.178Z,90.44
2019-01-17T09:32:51.779Z,90.50
2019-01-17T09:35:21.342Z,90.54
2019-01-17T09:37:50.712Z,89.79
2019-01-17T09:40:21.024Z,89.70
2019-01-17T09:42:50.325Z,89.71
2019-01-17T09:45:19.476Z,88.65
2019-01-17T09:47:48.784Z,87.72
2019-01-17T09:50:20.402Z,85.43
2019-01-17T09:52:49.471Z,83.71
2019-01-17T09:55:18.498Z,77.63
2019-01-17T09:57:48.014Z,75.85
2019-01-17T10:00:19.995Z,73.19
2019-01-17T10:02:49.266Z,69.17
2019-01-17T10:05:18.366Z,67.95
2019-01-17T10:07:47.487Z,68.73
2019-01-17T10:10:17.685Z,70.83
2019-01-17T10:12:47.102Z,72.20
2019-01-17T10:15:49.414Z,73.82
2019-01-17T10:18:45.119Z,74.15
2019-01-17T10:21:50.833Z,70.90
2019-01-17T10:24:50.196Z,71.06
2019-01-17T10:28:06.134Z,65.27
2019-01-17T10:31:13.412Z,62.53
2019-01-17T10:33:51.388Z,63.24
2019-01-17T10:37:03.474Z,68.08
2019-01-17T10:40:24.414Z,69.32
2019-01-17T10:43:22.730Z,70.35
2019-01-17T10:46:30.424Z,71.35
2019-01-17T10:49:19.357Z,73.59
2019-01-17T10:52:23.368Z,72.63
2019-01-17T10:55:30.321Z,72.07
2019-01-17T10:58:13.018Z,71.91
2019-01-17T11:01:17.909Z,74.31
2019-01-17T11:04:13.991Z,76.70
2019-01-17T11:07:18.404Z,78.77
2019-01-17T11:10:11.016Z,80.02
2019-01-17T11:13:16.248Z,81.25
2019-01-17T11:16:23.579Z,83.27
2019-01-17T11:19:25.825Z,80.85
2019-01-17T11:22:51.244Z,79.62
2019-01-17T11:26:00.729Z,78.27
2019-01-17T11:28:58.252Z,77.42
2019-01-17T11:31:53.523Z,72.59
2019-01-17T11:35:01.290Z,70.82
2019-01-17T11:37:57.042Z,72.56
2019-01-17T11:40:55.211Z,74.06
2019-01-17T11:44:05.220Z,74.21
2019-01-17T11:46:48.446Z,67.14
2019-01-17T11:49:45.993Z,67.85
2019-01-17T11:52:59.210Z,70.98
2019-01-17T11:55:50.962Z,74.61
2019-01-17T11:58:52.103Z,77.21
2019-01-17T12:01:49.602Z,76.66
2019-01-17T12:04:35.772Z,78.65
2019-01-17T12:07:23.907Z,77.30
2019-01-17T12:09:53.372Z,75.35
2019-01-17T12:12:26.094Z,74.57
2019-01-17T12:14:58.379Z,70.47
2019-01-17T12:17:27.834Z,69.26
2019-01-17T12:19:56.856Z,69.64
2019-01-17T12:22:25.912Z,71.04
2019-01-17T12:24:55.280Z,71.04
2019-01-17T12:27:24.310Z,73.47
2019-01-17T12:29:53.334Z,73.49
2019-01-17T12:32:22.894Z,74.15
2019-01-17T12:34:59.146Z,73.97
2019-01-17T12:37:28.228Z,75.17
2019-01-17T12:39:57.618Z,73.86
2019-01-17T12:42:26.724Z,75.57
2019-01-17T12:44:55.782Z,77.20
2019-01-17T12:47:24.841Z,75.30
2019-01-17T12:49:53.931Z,75.69
2019-01-17T12:52:23.193Z,76.14
2019-01-17T12:54:52.526Z,78.60
2019-01-17T12:57:21.591Z,76.87
2019-01-17T12:59:50.991Z,76.12
2019-01-17T13:02:20.076Z,76.66
2019-01-17T13:04:49.206Z,77.04
2019-01-17T13:07:18.298Z,75.74
2019-01-17T13:09:47.682Z,74.88
2019-01-17T13:12:16.832Z,73.45
2019-01-17T13:14:46.189Z,73.15
2019-01-17T13:17:15.273Z,72.93
2019-01-17T13:19:44.332Z,73.64
2019-01-17T13:22:13.528Z,71.30
2019-01-17T13:24:42.849Z,71.26
2019-01-17T13:27:12.145Z,72.75
2019-01-17T13:29:41.619Z,69.47
2019-01-17T13:32:10.676Z,69.98
2019-01-17T13:34:39.713Z,70.65
2019-01-17T13:37:08.777Z,69.29
2019-01-17T13:39:37.876Z,71.58
2019-01-17T13:42:06.929Z,70.64
2019-01-17T13:44:36.274Z,71.85
2019-01-17T13:47:05.300Z,72.23
2019-01-17T13:49:34.441Z,72.69
2019-01-17T13:52:03.533Z,69.45
2019-01-17T13:54:32.560Z,69.29
2019-01-17T13:57:07.320Z,70.91
2019-01-17T13:59:32.320Z,72.39
2019-01-17T14:02:01.356Z,72.17
2019-01-17T14:04:30.391Z,71.10
2019-01-17T14:06:59.882Z,69.68
2019-01-17T14:09:29.417Z,67.55
2019-01-17T14:11:58.830Z,66.87
2019-01-17T14:14:28.224Z,64.68
2019-01-17T14:16:57.259Z,62.63
2019-01-17T14:19:26.290Z,58.43
2019-01-17T14:21:55.688Z,58.70
2019-01-17T14:24:24.785Z,63.63
2019-01-17T14:26:53.829Z,59.54
2019-01-17T14:29:22.942Z,59.63
2019-01-17T14:31:52.351Z,60.41
2019-01-17T14:34:21.389Z,57.42
2019-01-17T14:36:50.639Z,59.89
2019-01-17T14:39:19.995Z,61.89
2019-01-17T14:41:49.040Z,62.31
2019-01-17T14:44:18.419Z,64.69
2019-01-17T14:46:47.546Z,63.59
2019-01-17T14:49:16.681Z,63.53
2019-01-17T14:51:45.725Z,62.82
2019-01-17T14:54:17.795Z,63.75
2019-01-17T14:56:46.847Z,62.07
2019-01-17T14:59:15.887Z,63.89
2019-01-17T15:01:45.288Z,65.48
2019-01-17T15:04:14.312Z,66.13
2019-01-17T15:06:43.349Z,67.87
2019-01-17T15:09:12.658Z,67.88
2019-01-17T15:11:41.649Z,67.21
2019-01-17T15:14:10.692Z,69.17
2019-01-17T15:16:39.732Z,73.07
2019-01-17T15:19:08.781Z,70.91
2019-01-17T15:21:37.809Z,69.57
2019-01-17T15:24:06.872Z,69.93
2019-01-17T15:26:35.877Z,70.89
2019-01-17T15:29:04.922Z,71.55
2019-01-17T15:31:33.969Z,72.58
2019-01-17T15:34:03.034Z,69.99
2019-01-17T15:36:32.056Z,71.58
2019-01-17T15:39:01.046Z,71.79
2019-01-17T15:41:30.061Z,72.29
2019-01-17T15:43:59.314Z,72.71
2019-01-17T15:46:28.638Z,73.38
2019-01-17T15:48:58.046Z,74.32
2019-01-17T15:51:27.150Z,73.72
2019-01-17T15:53:56.545Z,71.76
2019-01-17T15:56:25.569Z,72.37
2019-01-17T15:58:55.023Z,73.89
2019-01-17T16:01:24.090Z,74.28
2019-01-17T16:03:53.247Z,72.55
2019-01-17T16:06:22.264Z,73.03
2019-01-17T16:08:51.620Z,74.42
2019-01-17T16:11:21.860Z,73.53
2019-01-17T16:13:50.862Z,72.67
2019-01-17T16:16:20.151Z,74.72
2019-01-17T16:18:49.651Z,74.86
2019-01-17T16:21:19.193Z,71.62
2019-01-17T16:23:48.219Z,73.81
2019-01-17T16:26:17.567Z,72.53
2019-01-17T16:28:46.884Z,71.67
2019-01-17T16:31:15.900Z,71.94
2019-01-17T16:33:45.266Z,72.97
2019-01-17T16:36:14.522Z,72.88
2019-01-17T16:38:43.653Z,71.09
2019-01-17T16:41:13.021Z,71.79
2019-01-17T16:43:42.065Z,73.41
2019-01-17T16:46:11.251Z,72.29
2019-01-17T16:48:40.451Z,73.73
2019-01-17T16:51:10.199Z,73.28
2019-01-17T16:53:39.517Z,74.28
2019-01-17T16:56:08.896Z,73.10
2019-01-17T16:58:37.940Z,73.04
2019-01-17T17:01:06.965Z,73.13
2019-01-17T17:03:36.416Z,73.71
2019-01-17T17:06:06.379Z,75.17
2019-01-17T17:08:35.602Z,74.15
2019-01-17T17:11:06.446Z,74.41
2019-01-17T17:13:35.643Z,73.32
2019-01-17T17:16:04.994Z,74.02
2019-01-17T17:18:34.142Z,73.84
2019-01-17T17:21:03.251Z,74.08
2019-01-17T17:23:32.495Z,73.94
2019-01-17T17:26:01.757Z,74.71
2019-01-17T17:28:30.835Z,76.42
2019-01-17T17:31:00.355Z,76.71
2019-01-17T17:33:29.394Z,77.06
2019-01-17T17:35:58.469Z,78.19
2019-01-17T17:38:27.815Z,80.12
2019-01-17T17:40:56.899Z,81.08
2019-01-17T17:43:25.934Z,80.87
2019-01-17T17:45:55.024Z,79.86
2019-01-17T17:48:24.071Z,81.25
2019-01-17T17:50:54.507Z,81.73
2019-01-17T17:53:23.668Z,82.19
2019-01-17T17:55:53.746Z,83.45
2019-01-17T17:58:23.390Z,84.10
2019-01-17T18:00:55.886Z,85.63
2019-01-17T18:03:24.944Z,85.44
2019-01-17T18:05:53.971Z,86.36
2019-01-17T18:08:23.005Z,87.47
2019-01-17T18:10:52.080Z,88.00
2019-01-17T18:13:22.323Z,87.28
2019-01-17T18:15:51.446Z,86.61
2019-01-17T18:18:20.833Z,86.91
2019-01-17T18:20:49.921Z,86.56
2019-01-17T18:23:19.062Z,86.03
2019-01-17T18:25:48.071Z,84.98
2019-01-17T18:28:20.485Z,86.60
2019-01-17T18:30:49.640Z,86.33
2019-01-17T18:33:19.626Z,86.12
2019-01-17T18:35:49.026Z,86.47
2019-01-17T18:38:18.042Z,86.28
2019-01-17T18:40:48.803Z,85.36
2019-01-17T18:43:18.830Z,84.98
2019-01-17T18:45:47.895Z,84.21
2019-01-17T18:48:17.507Z,85.09
2019-01-17T18:50:47.022Z,85.67
2019-01-17T18:53:16.103Z,86.83
2019-01-17T18:55:45.217Z,85.52
2019-01-17T18:58:15.612Z,86.16
2019-01-17T19:00:45.354Z,87.38
2019-01-17T19:03:14.366Z,87.85
2019-01-17T19:05:43.417Z,88.19
2019-01-17T19:08:12.967Z,88.36
2019-01-17T19:10:42.053Z,86.66
2019-01-17T19:13:11.342Z,87.77
2019-01-17T19:15:40.359Z,87.71
2019-01-17T19:18:09.652Z,87.17
2019-01-17T19:20:38.785Z,87.81
2019-01-17T19:23:08.121Z,87.11
2019-01-17T19:25:37.197Z,87.89
2019-01-17T19:28:06.274Z,87.62
2019-01-17T19:30:36.963Z,87.52
2019-01-17T19:33:07.278Z,86.87
2019-01-17T19:35:36.310Z,87.99
2019-01-17T19:38:05.911Z,88.09
2019-01-17T19:40:35.319Z,87.28
2019-01-17T19:43:05.254Z,87.64
2019-01-17T19:45:34.667Z,86.68
2019-01-17T19:48:03.671Z,87.14
2019-01-17T19:50:37.578Z,87.73
2019-01-17T19:53:09.798Z,86.47
2019-01-17T19:55:38.914Z,87.08
2019-01-17T19:58:08.228Z,86.50
2019-01-17T20:00:37.350Z,86.65
2019-01-17T20:03:06.380Z,86.06
2019-01-17T20:05:35.717Z,85.29
2019-01-17T20:08:08.974Z,85.36
2019-01-17T20:10:38.469Z,85.65
2019-01-17T20:13:08.493Z,85.77
2019-01-17T20:15:37.881Z,87.06
2019-01-17T20:18:08.297Z,86.31
2019-01-17T20:20:37.787Z,86.70
2019-01-17T20:23:06.871Z,86.40
2019-01-17T20:25:36.417Z,86.36
2019-01-17T20:28:05.661Z,87.09
2019-01-17T20:30:35.134Z,87.48
2019-01-17T20:33:06.749Z,87.90
2019-01-17T20:35:35.747Z,88.68
2019-01-17T20:38:05.869Z,88.67
2019-01-17T20:40:35.260Z,88.26
2019-01-17T20:43:04.539Z,88.00
2019-01-17T20:45:33.633Z,87.18
2019-01-17T20:48:03.040Z,87.28
2019-01-17T20:50:33.460Z,87.75
2019-01-17T20:53:02.469Z,87.90
2019-01-17T20:55:31.477Z,87.90
2019-01-17T20:58:00.547Z,87.54
2019-01-17T21:00:43.117Z,87.97
2019-01-17T21:03:13.995Z,88.15
2019-01-17T21:05:43.029Z,86.65
2019-01-17T21:08:12.684Z,86.82
2019-01-17T21:10:41.690Z,86.10
2019-01-17T21:13:10.708Z,86.42
2019-01-17T21:15:40.451Z,85.73
2019-01-17T21:18:09.900Z,84.75
2019-01-17T21:20:38.907Z,84.05
2019-01-17T21:23:08.044Z,83.85
2019-01-17T21:25:37.419Z,84.52
2019-01-17T21:28:06.876Z,82.98
2019-01-17T21:30:36.199Z,82.69
2019-01-17T21:33:07.101Z,83.27
2019-01-17T21:35:36.238Z,82.90
2019-01-17T21:38:06.098Z,83.27
2019-01-17T21:40:35.143Z,83.91
2019-01-17T21:43:04.206Z,84.93
2019-01-17T21:45:34.158Z,85.62
2019-01-17T21:48:03.208Z,86.27
2019-01-17T21:50:32.296Z,86.41
2019-01-17T21:53:03.073Z,87.37
2019-01-17T21:55:32.284Z,87.09
2019-01-17T21:58:01.328Z,87.17
2019-01-17T22:00:30.448Z,87.39
2019-01-17T22:02:59.454Z,87.86
2019-01-17T22:05:28.543Z,86.99
2019-01-17T22:07:57.618Z,86.98
2019-01-17T22:10:26.674Z,87.52
2019-01-17T22:12:55.758Z,87.90
2019-01-17T22:15:25.658Z,87.91
2019-01-17T22:17:55.574Z,87.94
2019-01-17T22:20:25.084Z,87.18
2019-01-17T22:22:54.920Z,87.66
2019-01-17T22:25:24.358Z,88.33
2019-01-17T22:27:53.672Z,88.59
2019-01-17T22:30:27.314Z,88.96
2019-01-17T22:32:56.763Z,88.24
2019-01-17T22:35:26.764Z,89.31
2019-01-17T22:37:56.126Z,89.37
2019-01-17T22:40:26.572Z,88.88
2019-01-17T22:42:55.893Z,88.44
2019-01-17T22:45:30.184Z,88.33
2019-01-17T22:47:59.229Z,88.59
2019-01-17T22:50:28.540Z,89.06
2019-01-17T22:52:57.656Z,89.38
2019-01-17T22:55:26.692Z,88.72
2019-01-17T22:57:55.720Z,88.77
2019-01-17T23:00:58.154Z,89.25
2019-01-17T23:03:40.100Z,89.09
2019-01-17T23:06:10.252Z,88.91
2019-01-17T23:08:39.324Z,88.83
2019-01-17T23:11:08.431Z,89.06
2019-01-17T23:13:38.206Z,89.16
2019-01-17T23:16:07.924Z,89.29
2019-01-17T23:18:36.941Z,89.95
2019-01-17T23:21:06.718Z,89.68
2019-01-17T23:23:35.898Z,89.92
2019-01-17T23:26:05.190Z,90.32
2019-01-17T23:28:34.182Z,90.28
2019-01-17T23:31:03.704Z,90.26
2019-01-17T23:33:33.835Z,90.50
2019-01-17T23:36:03.298Z,89.89
2019-01-17T23:38:33.462Z,89.53
2019-01-17T23:41:02.450Z,89.87
2019-01-17T23:43:32.143Z,89.87
2019-01-17T23:46:01.167Z,89.89
2019-01-17T23:48:30.334Z,89.96
2019-01-17T23:50:59.722Z,90.03
2019-01-17T23:53:28.790Z,90.21
2019-01-17T23:55:57.810Z,90.38
2019-01-17T23:58:27.142Z,90.14
